createdAt,value
2019-05-29T00:01:54.531Z,100868.34
2019-05-29T00:04:27.618Z,100867.19
2019-05-29T00:07:00.569Z,100863.91
2019-05-29T00:09:33.762Z,100859.80
2019-05-29T00:12:08.496Z,100860.27
2019-05-29T00:14:41.968Z,100853.89
2019-05-29T00:17:14.993Z,100852.81
2019-05-29T00:19:48.235Z,100860.06
2019-05-29T00:22:21.241Z,100854.06
2019-05-29T00:24:54.116Z,100850.91
2019-05-29T00:27:27.063Z,100851.73
2019-05-29T00:30:00.125Z,100845.03
2019-05-29T00:32:33.330Z,100845.19
2019-05-29T00:35:10.099Z,100846.72
2019-05-29T00:37:43.307Z,100842.97
2019-05-29T00:40:17.121Z,100842.66
2019-05-29T00:42:50.233Z,100837.92
2019-05-29T00:45:23.333Z,100839.39
2019-05-29T00:47:56.176Z,100833.44
2019-05-29T00:50:29.080Z,100830.53
2019-05-29T00:53:02.228Z,100829.02
2019-05-29T00:55:35.419Z,100827.33
2019-05-29T00:58:08.821Z,100826.95
2019-05-29T01:00:41.938Z,100824.92
2019-05-29T01:03:15.893Z,100824.94
2019-05-29T01:05:49.338Z,100824.55
2019-05-29T01:08:22.383Z,100820.13
2019-05-29T01:10:55.487Z,100818.87
2019-05-29T01:13:28.544Z,100821.05
2019-05-29T01:16:02.073Z,100819.75
2019-05-29T01:18:35.356Z,100819.97
2019-05-29T01:21:08.434Z,100817.33
2019-05-29T01:23:41.415Z,100819.75
2019-05-29T01:26:16.505Z,100821.79
2019-05-29T01:28:49.515Z,100823.94
2019-05-29T01:31:23.602Z,100824.04
2019-05-29T01:33:56.812Z,100827.55
2019-05-29T01:36:30.439Z,100828.08
2019-05-29T01:39:03.955Z,100830.78
2019-05-29T01:41:36.988Z,100832.92
2019-05-29T01:44:10.018Z,100837.20
2019-05-29T01:46:43.047Z,100846.44
2019-05-29T01:49:16.422Z,100841.39
2019-05-29T01:51:50.913Z,100845.15
2019-05-29T01:54:23.928Z,100847.33
2019-05-29T01:56:56.956Z,100851.57
2019-05-29T01:59:29.851Z,100851.09
2019-05-29T02:02:02.791Z,100849.77
2019-05-29T02:04:35.712Z,100853.25
2019-05-29T02:07:08.758Z,100850.02
2019-05-29T02:09:41.625Z,100849.60
2019-05-29T02:12:14.786Z,100845.07
2019-05-29T02:14:47.765Z,100850.78
2019-05-29T02:17:21.796Z,100850.98
2019-05-29T02:19:54.891Z,100846.76
2019-05-29T02:22:27.896Z,100848.57
2019-05-29T02:25:00.787Z,100845.41
2019-05-29T02:27:33.943Z,100851.91
2019-05-29T02:30:09.603Z,100856.33
2019-05-29T02:32:42.673Z,100854.33
2019-05-29T02:35:15.915Z,100858.95
2019-05-29T02:37:49.079Z,100856.73
2019-05-29T02:40:24.739Z,100858.88
2019-05-29T02:42:56.932Z,100861.48
2019-05-29T02:45:52.095Z,100864.19
2019-05-29T02:48:05.033Z,100866.27
2019-05-29T02:50:38.274Z,100869.91
2019-05-29T02:53:11.790Z,100864.77
2019-05-29T02:55:44.852Z,100862.93
2019-05-29T02:58:18.111Z,100872.61
2019-05-29T03:00:57.136Z,100876.09
2019-05-29T03:03:36.988Z,100877.84
2019-05-29T03:06:05.473Z,100878.59
2019-05-29T03:08:38.429Z,100882.69
2019-05-29T03:11:11.555Z,100885.11
2019-05-29T03:13:44.613Z,100889.81
2019-05-29T03:16:17.579Z,100886.27
2019-05-29T03:18:50.754Z,100881.92
2019-05-29T03:21:24.131Z,100880.03
2019-05-29T03:23:58.385Z,100882.56
2019-05-29T03:26:32.927Z,100886.21
2019-05-29T03:29:06.081Z,100890.22
2019-05-29T03:31:46.491Z,100889.62
2019-05-29T03:34:13.846Z,100878.54
2019-05-29T03:36:48.660Z,100881.41
2019-05-29T03:39:21.796Z,100876.64
2019-05-29T03:41:54.825Z,100870.50
2019-05-29T03:44:28.726Z,100879.17
2019-05-29T03:47:02.045Z,100867.31
2019-05-29T03:49:35.408Z,100869.77
2019-05-29T03:52:09.922Z,100874.86
2019-05-29T03:54:42.788Z,100876.75
2019-05-29T03:57:15.739Z,100882.72
2019-05-29T03:59:48.682Z,100877.17
2019-05-29T04:02:21.682Z,100878.54
2019-05-29T04:04:54.741Z,100875.59
2019-05-29T04:07:29.145Z,100879.34
2019-05-29T04:10:02.221Z,100881.37
2019-05-29T04:12:35.629Z,100880.31
2019-05-29T04:15:08.786Z,100878.75
2019-05-29T04:17:41.866Z,100882.30
2019-05-29T04:20:16.904Z,100884.59
2019-05-29T04:22:50.010Z,100880.80
2019-05-29T04:25:22.906Z,100888.97
2019-05-29T04:27:56.007Z,100891.00
2019-05-29T04:30:29.999Z,100891.00
2019-05-29T04:33:03.384Z,100902.38
2019-05-29T04:35:36.792Z,100898.48
2019-05-29T04:38:10.131Z,100901.40
2019-05-29T04:40:43.054Z,100901.37
2019-05-29T04:43:16.279Z,100893.57
2019-05-29T04:45:49.184Z,100893.77
2019-05-29T04:48:22.296Z,100902.16
2019-05-29T04:50:55.323Z,100895.34
2019-05-29T04:53:29.474Z,100900.14
2019-05-29T04:56:02.900Z,100890.58
2019-05-29T04:58:36.933Z,100901.08
2019-05-29T05:01:10.013Z,100893.01
2019-05-29T05:03:42.929Z,100897.22
2019-05-29T05:06:16.068Z,100896.64
2019-05-29T05:08:48.920Z,100896.95
2019-05-29T05:11:21.829Z,100898.15
2019-05-29T05:13:55.786Z,100895.89
2019-05-29T05:16:29.720Z,100891.12
2019-05-29T05:19:02.904Z,100898.54
2019-05-29T05:21:36.036Z,100897.96
2019-05-29T05:24:09.141Z,100905.78
2019-05-29T05:26:42.251Z,100899.91
2019-05-29T05:29:15.071Z,100900.99
2019-05-29T05:31:48.153Z,100899.58
2019-05-29T05:34:21.044Z,100909.92
2019-05-29T05:36:53.915Z,100908.66
2019-05-29T05:39:26.794Z,100925.70
2019-05-29T05:42:00.011Z,100925.41
2019-05-29T05:44:32.864Z,100935.50
2019-05-29T05:47:05.794Z,100932.17
2019-05-29T05:49:39.500Z,100940.11
2019-05-29T05:52:12.624Z,100936.03
2019-05-29T05:54:45.501Z,100943.71
2019-05-29T05:57:18.355Z,100944.78
2019-05-29T05:59:52.335Z,100944.01
2019-05-29T06:02:25.247Z,100948.64
2019-05-29T06:04:58.076Z,100951.73
2019-05-29T06:07:32.026Z,100951.63
2019-05-29T06:10:07.655Z,100953.23
2019-05-29T06:12:40.665Z,100954.20
2019-05-29T06:15:13.741Z,100964.59
2019-05-29T06:18:04.610Z,100967.66
2019-05-29T06:20:22.275Z,100971.89
2019-05-29T06:22:55.448Z,100967.12
2019-05-29T06:25:28.412Z,100972.26
2019-05-29T06:28:01.399Z,100960.05
2019-05-29T06:30:36.152Z,100964.25
2019-05-29T06:33:09.087Z,100954.45
2019-05-29T06:35:42.168Z,100950.14
2019-05-29T06:38:15.087Z,100960.30
2019-05-29T06:40:47.913Z,100956.80
2019-05-29T06:43:26.101Z,100950.52
2019-05-29T06:45:59.062Z,100949.84
2019-05-29T06:48:44.753Z,100946.30
2019-05-29T06:51:07.351Z,100940.78
2019-05-29T06:53:41.755Z,100947.43
2019-05-29T06:56:16.078Z,100942.41
2019-05-29T06:58:49.636Z,100943.92
2019-05-29T07:01:22.738Z,100944.56
2019-05-29T07:04:11.172Z,100941.02
2019-05-29T07:06:30.951Z,100944.84
2019-05-29T07:09:05.233Z,100942.64
2019-05-29T07:11:39.039Z,100937.94
2019-05-29T07:14:12.201Z,100938.26
2019-05-29T07:16:55.117Z,100942.02
2019-05-29T07:19:34.207Z,100939.10
2019-05-29T07:21:55.530Z,100933.88
2019-05-29T07:24:28.528Z,100925.71
2019-05-29T07:27:01.773Z,100922.23
2019-05-29T07:29:34.811Z,100923.70
2019-05-29T07:32:07.798Z,100910.88
2019-05-29T07:34:57.263Z,100916.50
2019-05-29T07:37:15.482Z,100911.66
2019-05-29T07:39:48.361Z,100915.44
2019-05-29T07:42:21.308Z,100917.48
2019-05-29T07:44:54.811Z,100916.70
2019-05-29T07:47:27.964Z,100913.45
2019-05-29T07:50:00.914Z,100896.84
2019-05-29T07:52:33.839Z,100913.52
2019-05-29T07:55:08.184Z,100909.87
2019-05-29T07:57:42.651Z,100898.56
2019-05-29T08:00:16.039Z,100896.22
2019-05-29T08:02:49.471Z,100894.47
2019-05-29T08:05:22.636Z,100901.50
2019-05-29T08:07:55.762Z,100894.14
2019-05-29T08:10:29.086Z,100892.69
2019-05-29T08:13:02.187Z,100889.26
2019-05-29T08:15:51.211Z,100886.67
2019-05-29T08:18:09.658Z,100891.66
2019-05-29T08:20:43.909Z,100899.77
2019-05-29T08:23:16.995Z,100897.18
2019-05-29T08:25:51.856Z,100900.56
2019-05-29T08:28:25.001Z,100905.45
2019-05-29T08:30:57.875Z,100905.21
2019-05-29T08:33:32.146Z,100895.86
2019-05-29T08:36:05.166Z,100897.57
2019-05-29T08:38:38.085Z,100905.11
2019-05-29T08:41:11.111Z,100891.02
2019-05-29T08:43:45.180Z,100897.62
2019-05-29T08:46:18.601Z,100888.44
2019-05-29T08:48:54.196Z,100894.37
2019-05-29T08:51:27.338Z,100894.30
2019-05-29T08:54:00.343Z,100889.17
2019-05-29T08:56:33.325Z,100884.14
2019-05-29T08:59:06.392Z,100876.48
2019-05-29T09:01:39.586Z,100896.19
2019-05-29T09:04:13.185Z,100889.95
2019-05-29T09:06:46.964Z,100887.70
2019-05-29T09:09:20.001Z,100876.44
2019-05-29T09:11:53.922Z,100886.66
2019-05-29T09:14:27.013Z,100874.72
2019-05-29T09:17:00.106Z,100878.27
2019-05-29T09:19:33.111Z,100873.09
2019-05-29T09:22:06.607Z,100872.92
2019-05-29T09:24:39.458Z,100866.61
2019-05-29T09:27:12.753Z,100863.80
2019-05-29T09:29:46.920Z,100857.92
2019-05-29T09:32:40.729Z,100860.41
2019-05-29T09:34:54.784Z,100853.08
2019-05-29T09:37:27.646Z,100845.75
2019-05-29T09:40:00.607Z,100840.32
2019-05-29T09:42:33.624Z,100840.31
2019-05-29T09:45:07.756Z,100837.48
2019-05-29T09:47:40.633Z,100833.81
2019-05-29T09:50:13.839Z,100837.81
2019-05-29T09:52:46.777Z,100834.86
2019-05-29T09:55:19.807Z,100831.58
2019-05-29T09:57:54.120Z,100833.73
2019-05-29T10:00:27.470Z,100825.80
2019-05-29T10:03:01.440Z,100816.70
2019-05-29T10:05:34.515Z,100818.67
2019-05-29T10:08:07.410Z,100815.11
2019-05-29T10:10:40.422Z,100808.00
2019-05-29T10:13:13.443Z,100799.67
2019-05-29T10:15:46.407Z,100789.19
2019-05-29T10:18:32.175Z,100772.59
2019-05-29T10:20:55.852Z,100759.59
2019-05-29T10:23:29.003Z,100754.95
2019-05-29T10:26:03.417Z,100760.85
2019-05-29T10:28:50.135Z,100757.22
2019-05-29T10:31:11.170Z,100754.20
2019-05-29T10:33:44.257Z,100750.91
2019-05-29T10:36:17.125Z,100756.98
2019-05-29T10:38:50.729Z,100758.15
2019-05-29T10:41:24.169Z,100748.79
2019-05-29T10:43:58.602Z,100721.45
2019-05-29T10:46:31.745Z,100723.69
2019-05-29T10:49:05.026Z,100721.98
2019-05-29T10:51:38.196Z,100724.23
2019-05-29T10:54:11.161Z,100722.59
2019-05-29T10:56:44.753Z,100710.12
2019-05-29T10:59:17.767Z,100723.72
2019-05-29T11:01:51.338Z,100734.56
2019-05-29T11:04:24.792Z,100716.54
2019-05-29T11:06:57.737Z,100722.34
2019-05-29T11:09:43.886Z,100715.69
2019-05-29T11:12:05.796Z,100707.95
2019-05-29T11:14:38.721Z,100709.09
2019-05-29T11:17:11.617Z,100699.97
2019-05-29T11:19:44.562Z,100692.45
2019-05-29T11:22:26.335Z,100678.88
2019-05-29T11:24:52.534Z,100691.64
2019-05-29T11:27:26.269Z,100685.01
2019-05-29T11:29:59.412Z,100692.47
2019-05-29T11:32:32.463Z,100691.09
2019-05-29T11:35:06.164Z,100688.04
2019-05-29T11:37:39.272Z,100688.30
2019-05-29T11:40:12.537Z,100686.38
2019-05-29T11:42:45.547Z,100682.22
2019-05-29T11:45:19.623Z,100686.38
2019-05-29T11:47:53.956Z,100691.61
2019-05-29T11:50:29.083Z,100683.58
2019-05-29T11:53:02.678Z,100669.97
2019-05-29T11:55:35.615Z,100678.55
2019-05-29T11:58:08.693Z,100677.12
2019-05-29T12:00:41.671Z,100682.45
2019-05-29T12:03:15.087Z,100674.44
2019-05-29T12:05:47.964Z,100674.73
2019-05-29T12:08:20.904Z,100679.47
2019-05-29T12:10:53.961Z,100667.00
2019-05-29T12:13:27.145Z,100663.38
2019-05-29T12:16:00.230Z,100652.30
2019-05-29T12:18:33.184Z,100641.20
2019-05-29T12:21:06.116Z,100625.95
2019-05-29T12:23:39.117Z,100606.84
2019-05-29T12:26:21.473Z,100614.59
2019-05-29T12:28:47.026Z,100612.08
2019-05-29T12:31:20.050Z,100627.89
2019-05-29T12:33:53.027Z,100645.61
2019-05-29T12:36:25.955Z,100660.02
2019-05-29T12:38:59.607Z,100673.31
2019-05-29T12:41:32.866Z,100681.67
2019-05-29T12:44:06.291Z,100688.05
2019-05-29T12:46:39.237Z,100701.30
2019-05-29T12:49:12.320Z,100712.42
2019-05-29T12:51:45.397Z,100714.09
2019-05-29T12:54:18.303Z,100710.73
2019-05-29T12:56:51.251Z,100710.17
2019-05-29T12:59:24.048Z,100712.41
2019-05-29T13:01:58.427Z,100708.23
2019-05-29T13:04:31.520Z,100709.03
2019-05-29T13:07:04.738Z,100709.84
2019-05-29T13:09:37.763Z,100713.47
2019-05-29T13:12:10.738Z,100714.58
2019-05-29T13:14:43.690Z,100718.45
2019-05-29T13:17:16.780Z,100724.53
2019-05-29T13:19:49.767Z,100721.22
2019-05-29T13:22:22.898Z,100721.55
2019-05-29T13:24:57.221Z,100730.70
2019-05-29T13:27:30.514Z,100719.91
2019-05-29T13:30:08.413Z,100718.20
2019-05-29T13:32:41.905Z,100718.22
2019-05-29T13:35:15.202Z,100720.48
2019-05-29T13:37:48.619Z,100715.18
2019-05-29T13:40:26.207Z,100716.31
2019-05-29T13:43:04.397Z,100718.80
2019-05-29T13:45:37.185Z,100722.69
2019-05-29T13:48:10.482Z,100718.25
2019-05-29T13:50:43.469Z,100720.75
2019-05-29T13:53:16.552Z,100718.54
2019-05-29T13:55:49.960Z,100719.06
2019-05-29T13:58:23.575Z,100723.23
2019-05-29T14:00:58.128Z,100710.73
2019-05-29T14:03:31.390Z,100713.27
2019-05-29T14:06:05.526Z,100709.66
2019-05-29T14:08:39.696Z,100712.42
2019-05-29T14:11:13.121Z,100719.63
2019-05-29T14:13:46.428Z,100711.30
2019-05-29T14:16:22.203Z,100709.92
2019-05-29T14:18:55.414Z,100708.83
2019-05-29T14:21:28.867Z,100702.44
2019-05-29T14:24:07.387Z,100699.40
2019-05-29T14:26:36.985Z,100696.91
2019-05-29T14:29:11.720Z,100696.92
2019-05-29T14:31:46.233Z,100701.08
2019-05-29T14:34:19.730Z,100701.64
2019-05-29T14:36:52.715Z,100704.11
2019-05-29T14:39:25.973Z,100703.57
2019-05-29T14:41:59.411Z,100703.02
2019-05-29T14:44:32.724Z,100705.51
2019-05-29T14:47:07.992Z,100702.72
2019-05-29T14:49:44.617Z,100704.14
2019-05-29T14:52:17.973Z,100711.34
2019-05-29T14:54:51.410Z,100711.34
2019-05-29T14:57:26.321Z,100715.21
2019-05-29T14:59:59.579Z,100710.23
2019-05-29T15:02:32.628Z,100708.57
2019-05-29T15:05:07.939Z,100711.63
2019-05-29T15:07:40.934Z,100710.22
2019-05-29T15:10:24.802Z,100708.02
2019-05-29T15:12:49.444Z,100714.09
2019-05-29T15:15:22.588Z,100711.63
2019-05-29T15:17:55.770Z,100710.23
2019-05-29T15:20:28.705Z,100711.06
2019-05-29T15:23:02.940Z,100711.59
2019-05-29T15:25:36.202Z,100712.43
2019-05-29T15:28:12.024Z,100716.03
2019-05-29T15:30:45.042Z,100705.52
2019-05-29T15:33:17.945Z,100710.78
2019-05-29T15:35:51.226Z,100717.15
2019-05-29T15:38:24.421Z,100704.91
2019-05-29T15:40:57.823Z,100710.17
2019-05-29T15:43:30.901Z,100709.88
2019-05-29T15:46:04.007Z,100709.06
2019-05-29T15:48:37.443Z,100706.86
2019-05-29T15:51:10.993Z,100709.04
2019-05-29T15:53:43.828Z,100710.42
2019-05-29T15:56:26.924Z,100709.88
2019-05-29T15:58:51.627Z,100706.54
2019-05-29T16:01:24.660Z,100706.50
2019-05-29T16:03:57.745Z,100708.73
2019-05-29T16:06:30.833Z,100701.80
2019-05-29T16:09:03.899Z,100702.06
2019-05-29T16:11:37.385Z,100696.19
2019-05-29T16:14:10.673Z,100694.48
2019-05-29T16:16:43.820Z,100688.66
2019-05-29T16:19:16.843Z,100689.76
2019-05-29T16:21:49.887Z,100688.36
2019-05-29T16:24:23.050Z,100682.22
2019-05-29T16:27:08.410Z,100684.94
2019-05-29T16:29:32.656Z,100687.83
2019-05-29T16:32:06.141Z,100682.55
2019-05-29T16:34:39.428Z,100688.57
2019-05-29T16:37:13.155Z,100691.63
2019-05-29T16:39:46.118Z,100701.59
2019-05-29T16:42:20.559Z,100704.94
2019-05-29T16:44:53.845Z,100712.69
2019-05-29T16:47:26.825Z,100709.11
2019-05-29T16:50:00.184Z,100715.19
2019-05-29T16:52:33.204Z,100715.19
2019-05-29T16:55:06.954Z,100718.19
2019-05-29T16:57:39.898Z,100710.14
2019-05-29T17:00:15.519Z,100714.80
2019-05-29T17:02:48.743Z,100718.95
2019-05-29T17:05:22.263Z,100727.25
2019-05-29T17:07:55.836Z,100731.68
2019-05-29T17:10:37.308Z,100731.36
2019-05-29T17:13:10.422Z,100725.83
2019-05-29T17:15:43.712Z,100726.08
2019-05-29T17:18:16.796Z,100730.73
2019-05-29T17:20:50.091Z,100729.35
2019-05-29T17:23:23.492Z,100728.52
2019-05-29T17:26:10.123Z,100726.55
2019-05-29T17:28:31.613Z,100728.73
2019-05-29T17:31:05.009Z,100732.00
2019-05-29T17:33:38.710Z,100725.56
2019-05-29T17:36:12.924Z,100727.45
2019-05-29T17:38:46.183Z,100728.79
2019-05-29T17:41:19.288Z,100733.14
2019-05-29T17:43:52.347Z,100735.06
2019-05-29T17:46:25.947Z,100738.08
2019-05-29T17:48:59.095Z,100739.70
2019-05-29T17:51:33.348Z,100739.45
2019-05-29T17:54:06.472Z,100747.94
2019-05-29T17:56:39.651Z,100742.61
2019-05-29T17:59:13.460Z,100749.72
2019-05-29T18:01:46.537Z,100758.67
2019-05-29T18:04:20.359Z,100755.02
2019-05-29T18:06:56.491Z,100757.03
2019-05-29T18:09:29.421Z,100764.11
2019-05-29T18:12:02.294Z,100771.83
2019-05-29T18:14:35.166Z,100777.84
2019-05-29T18:17:08.159Z,100782.77
2019-05-29T18:19:41.137Z,100780.52
2019-05-29T18:22:15.187Z,100789.34
2019-05-29T18:24:48.142Z,100793.47
2019-05-29T18:27:21.864Z,100789.58
2019-05-29T18:29:54.833Z,100797.81
2019-05-29T18:32:29.038Z,100789.73
2019-05-29T18:35:02.275Z,100787.16
2019-05-29T18:37:35.594Z,100773.83
2019-05-29T18:40:12.465Z,100777.84
2019-05-29T18:42:44.325Z,100781.52
2019-05-29T18:45:22.449Z,100786.33
2019-05-29T18:47:54.019Z,100792.22
2019-05-29T18:50:27.570Z,100788.14
2019-05-29T18:53:00.831Z,100787.60
2019-05-29T18:55:34.025Z,100789.25
2019-05-29T18:58:07.086Z,100788.69
2019-05-29T19:00:40.013Z,100788.59
2019-05-29T19:03:12.953Z,100788.84
2019-05-29T19:05:45.975Z,100787.22
2019-05-29T19:08:19.070Z,100782.78
2019-05-29T19:10:52.111Z,100781.69
2019-05-29T19:13:25.804Z,100772.70
2019-05-29T19:15:58.964Z,100770.94
2019-05-29T19:18:34.717Z,100769.69
2019-05-29T19:21:07.820Z,100769.50
2019-05-29T19:23:40.712Z,100774.17
2019-05-29T19:26:13.939Z,100770.19
2019-05-29T19:28:47.004Z,100774.84
2019-05-29T19:31:19.924Z,100777.17
2019-05-29T19:33:52.925Z,100779.18
2019-05-29T19:36:26.114Z,100776.13
2019-05-29T19:38:59.101Z,100772.11
2019-05-29T19:41:33.945Z,100775.63
2019-05-29T19:44:07.219Z,100777.61
2019-05-29T19:46:53.069Z,100778.15
2019-05-29T19:49:15.023Z,100775.84
2019-05-29T19:51:48.069Z,100778.66
2019-05-29T19:54:21.034Z,100780.40
2019-05-29T19:56:54.195Z,100776.58
2019-05-29T19:59:27.933Z,100777.81
2019-05-29T20:02:01.180Z,100781.64
2019-05-29T20:04:34.747Z,100775.00
2019-05-29T20:07:07.885Z,100774.52
2019-05-29T20:09:40.822Z,100777.08
2019-05-29T20:12:13.835Z,100778.15
2019-05-29T20:14:46.834Z,100776.14
2019-05-29T20:17:19.840Z,100777.48
2019-05-29T20:19:52.801Z,100783.05
2019-05-29T20:22:25.919Z,100767.68
2019-05-29T20:24:59.028Z,100771.09
2019-05-29T20:27:32.135Z,100778.37
2019-05-29T20:30:06.658Z,100774.97
2019-05-29T20:32:39.676Z,100781.72
2019-05-29T20:35:12.630Z,100788.41
2019-05-29T20:37:46.767Z,100783.01
2019-05-29T20:40:19.771Z,100788.84
2019-05-29T20:42:52.806Z,100791.67
2019-05-29T20:45:27.379Z,100790.59
2019-05-29T20:48:00.364Z,100796.91
2019-05-29T20:50:33.582Z,100797.20
2019-05-29T20:53:06.524Z,100795.09
2019-05-29T20:55:39.825Z,100802.17
2019-05-29T20:58:24.152Z,100802.41
2019-05-29T21:00:47.569Z,100807.88
2019-05-29T21:03:20.857Z,100808.61
2019-05-29T21:05:53.747Z,100812.20
2019-05-29T21:08:26.746Z,100813.27
2019-05-29T21:10:59.618Z,100811.25
2019-05-29T21:13:33.323Z,100813.73
2019-05-29T21:16:07.318Z,100813.16
2019-05-29T21:18:42.076Z,100827.45
2019-05-29T21:21:16.354Z,100825.00
2019-05-29T21:23:49.353Z,100827.45
2019-05-29T21:26:22.232Z,100826.00
2019-05-29T21:28:55.155Z,100827.14
2019-05-29T21:31:28.018Z,100823.52
2019-05-29T21:34:01.157Z,100817.41
2019-05-29T21:36:34.017Z,100823.55
2019-05-29T21:39:08.744Z,100828.75
2019-05-29T21:41:42.615Z,100832.00
2019-05-29T21:44:16.935Z,100827.42
2019-05-29T21:46:50.135Z,100828.83
2019-05-29T21:49:23.205Z,100819.94
2019-05-29T21:51:56.190Z,100822.34
2019-05-29T21:54:29.250Z,100822.80
2019-05-29T21:57:02.123Z,100823.60
2019-05-29T21:59:35.046Z,100819.94
2019-05-29T22:02:08.714Z,100823.41
2019-05-29T22:04:42.266Z,100824.48
2019-05-29T22:07:17.076Z,100828.56
2019-05-29T22:09:50.292Z,100816.73
2019-05-29T22:12:23.511Z,100820.31
2019-05-29T22:14:56.860Z,100816.12
2019-05-29T22:17:30.168Z,100821.80
2019-05-29T22:20:04.558Z,100819.59
2019-05-29T22:22:37.860Z,100816.12
2019-05-29T22:25:10.997Z,100824.55
2019-05-29T22:27:43.921Z,100805.61
2019-05-29T22:30:16.846Z,100816.61
2019-05-29T22:32:51.150Z,100816.95
2019-05-29T22:35:24.125Z,100810.50
2019-05-29T22:37:57.691Z,100818.93
2019-05-29T22:40:31.649Z,100816.91
2019-05-29T22:43:04.706Z,100812.51
2019-05-29T22:45:37.690Z,100815.30
2019-05-29T22:48:10.708Z,100812.12
2019-05-29T22:50:43.846Z,100811.90
2019-05-29T22:53:16.679Z,100814.34
2019-05-29T22:55:49.686Z,100813.07
2019-05-29T22:58:22.517Z,100810.70
2019-05-29T23:00:55.954Z,100811.36
2019-05-29T23:03:29.059Z,100819.38
2019-05-29T23:06:02.544Z,100818.46
2019-05-29T23:08:35.569Z,100809.15
2019-05-29T23:11:08.502Z,100812.12
2019-05-29T23:13:41.613Z,100805.79
2019-05-29T23:16:14.760Z,100805.33
2019-05-29T23:18:47.752Z,100801.64
2019-05-29T23:21:20.646Z,100804.61
2019-05-29T23:23:53.665Z,100804.25
2019-05-29T23:26:26.591Z,100798.96
2019-05-29T23:28:59.533Z,100794.41
2019-05-29T23:31:32.708Z,100798.88
2019-05-29T23:34:05.582Z,100798.36
2019-05-29T23:36:38.497Z,100799.86
2019-05-29T23:39:11.390Z,100795.12
2019-05-29T23:41:44.307Z,100802.22
2019-05-29T23:44:18.864Z,100794.68
2019-05-29T23:46:51.883Z,100798.14
2019-05-29T23:49:24.822Z,100800.00
2019-05-29T23:51:57.964Z,100794.55
2019-05-29T23:54:30.772Z,100796.84
2019-05-29T23:57:04.215Z,100802.16
2019-05-29T23:59:37.320Z,100798.17
